Time;durP1;ratioP1;P1;durP2;ratioP2;P2;SDS_P1;SDS_P2;PMS_P1;PMS_P2;Temp;Humidity;BMP_temperature;BMP_pressure;BME280_temperature;BME280_humidity;BME280_pressure;Samples;Min_cycle;Max_cycle;Signal;HPM_P1;HPM_P2
2022/10/26 00:01:09;;;;;;;10.20;7.55;;;;;;;12.95;100.00;99810.53;1762786;80;21087;-89
2022/10/26 00:03:38;;;;;;;8.75;7.78;;;;;;;12.87;100.00;99808.77;1765746;81;21353;-92
2022/10/26 00:06:10;;;;;;;9.63;7.28;;;;;;;12.80;100.00;99813.03;1748046;80;21116;-93
2022/10/26 00:08:39;;;;;;;10.90;8.08;;;;;;;12.84;100.00;99818.16;1752864;80;21129;-90
2022/10/26 00:11:06;;;;;;;13.53;8.65;;;;;;;12.90;100.00;99821.81;1761309;80;21097;-89
2022/10/26 00:13:32;;;;;;;14.45;11.20;;;;;;;12.95;100.00;99824.63;1762601;81;21075;-91
2022/10/26 00:16:00;;;;;;;16.15;13.03;;;;;;;12.80;100.00;99827.57;1759715;81;21291;-91
2022/10/26 00:18:27;;;;;;;18.67;14.05;;;;;;;12.96;100.00;99828.11;1763994;81;21074;-90
2022/10/26 00:20:54;;;;;;;20.52;14.58;;;;;;;12.87;100.00;99833.87;1756204;81;22124;-90
2022/10/26 00:23:21;;;;;;;21.65;15.85;;;;;;;12.87;100.00;99825.95;1714974;82;21089;-90
2022/10/26 00:25:54;;;;;;;19.48;15.10;;;;;;;12.82;100.00;99833.27;1697718;83;22142;-92
2022/10/26 00:28:21;;;;;;;;;;;;;;;12.71;100.00;99835.12;1693728;83;21064;-92
2022/10/26 00:30:47;;;;;;;20.62;16.35;;;;;;;12.60;100.00;99839.13;1713117;83;20495;-91
2022/10/26 00:33:13;;;;;;;20.10;15.65;;;;;;;12.60;100.00;99842.25;1692400;84;21014;-92
2022/10/26 00:35:42;;;;;;;22.27;15.63;;;;;;;12.61;100.00;99842.66;1690644;83;21101;-90
2022/10/26 00:38:08;;;;;;;19.12;15.10;;;;;;;12.52;100.00;99841.80;1680164;84;21149;-91
2022/10/26 00:40:35;;;;;;;18.80;14.35;;;;;;;12.54;100.00;99850.50;1739921;82;21040;-89
2022/10/26 00:43:02;;;;;;;17.40;13.30;;;;;;;12.46;100.00;99856.61;1733357;82;21053;-89
2022/10/26 00:45:29;;;;;;;19.30;13.78;;;;;;;12.45;100.00;99857.55;1737625;81;21049;-90
2022/10/26 00:48:00;;;;;;;17.90;13.38;;;;;;;12.38;100.00;99848.60;1753936;81;21671;-92
2022/10/26 00:50:32;;;;;;;;;;;;;;;12.31;100.00;99849.84;1761227;81;21130;-91
2022/10/26 00:52:59;;;;;;;15.60;12.33;;;;;;;12.34;100.00;99848.36;1762253;81;20247;-92
2022/10/26 00:55:28;;;;;;;16.60;13.68;;;;;;;12.34;100.00;99847.03;1753260;81;21047;-92
2022/10/26 00:57:57;;;;;;;20.40;14.93;;;;;;;12.36;100.00;99844.33;1764101;81;21074;-90
2022/10/26 01:00:25;;;;;;;22.40;15.25;;;;;;;12.42;100.00;99841.84;1743407;81;21064;-92
2022/10/26 01:02:52;;;;;;;19.85;15.65;;;;;;;12.38;100.00;99844.64;1753933;81;21138;-92
2022/10/26 01:05:18;;;;;;;20.92;15.40;;;;;;;12.39;100.00;99847.66;1764639;81;21059;-92
2022/10/26 01:07:45;;;;;;;24.20;16.23;;;;;;;12.31;100.00;99844.55;1762474;80;21086;-92
2022/10/26 01:10:14;;;;;;;23.12;17.07;;;;;;;12.36;100.00;99847.82;1744966;80;21039;-90
2022/10/26 01:12:42;;;;;;;26.25;18.50;;;;;;;12.33;100.00;99842.70;1769833;80;20984;-90
2022/10/26 01:15:09;;;;;;;26.82;18.07;;;;;;;12.37;100.00;99844.70;1757364;80;21172;-90
2022/10/26 01:17:55;;;;;;;31.35;19.02;;;;;;;12.39;100.00;99842.84;1758936;81;21019;-91
2022/10/26 01:20:58;;;;;;;28.42;18.00;;;;;;;12.33;100.00;99847.98;1702098;81;21063;-90
2022/10/26 01:23:57;;;;;;;25.12;17.85;;;;;;;12.36;100.00;99845.18;1752894;80;21000;-92
2022/10/26 01:26:38;;;;;;;24.55;16.77;;;;;;;12.29;100.00;99843.77;1762446;80;20977;-91
2022/10/26 01:29:23;;;;;;;24.55;17.12;;;;;;;12.30;100.00;99841.51;1732942;80;21821;-91
2022/10/26 01:32:00;;;;;;;22.20;16.57;;;;;;;12.25;100.00;99842.20;1765204;80;21036;-91
2022/10/26 01:34:39;;;;;;;19.17;15.08;;;;;;;12.29;100.00;99843.77;1754326;80;21136;-92
2022/10/26 01:37:21;;;;;;;22.55;15.72;;;;;;;12.29;100.00;99845.09;1753040;81;21057;-91
2022/10/26 01:39:55;;;;;;;24.55;17.42;;;;;;;12.42;100.00;99845.33;1742844;81;21158;-92
2022/10/26 01:42:22;;;;;;;26.30;18.30;;;;;;;12.29;100.00;99847.73;1764088;81;21088;-91
2022/10/26 01:44:57;;;;;;;23.70;17.70;;;;;;;12.28;100.00;99849.11;1737898;80;21061;-93
2022/10/26 01:47:23;;;;;;;24.37;16.20;;;;;;;12.25;100.00;99847.48;1758486;81;21132;-92
2022/10/26 01:49:54;;;;;;;21.07;15.63;;;;;;;12.31;100.00;99849.84;1716478;80;21080;-91
2022/10/26 01:52:20;;;;;;;21.33;15.68;;;;;;;12.39;100.00;99845.02;1759696;81;21054;-91
2022/10/26 01:54:47;;;;;;;22.62;16.07;;;;;;;12.46;100.00;99848.69;1741914;81;21843;-91
2022/10/26 01:57:18;;;;;;;22.42;16.12;;;;;;;12.46;100.00;99844.25;1765860;81;21113;-90
2022/10/26 02:00:09;;;;;;;24.98;16.07;;;;;;;12.54;100.00;99850.50;1748570;80;21065;-90
2022/10/26 02:03:11;;;;;;;22.07;15.63;;;;;;;12.46;100.00;99852.65;1734811;82;21033;-90
2022/10/26 02:06:18;;;;;;;23.25;17.20;;;;;;;12.45;100.00;99852.27;1730208;82;21139;-92
2022/10/26 02:09:13;;;;;;;25.37;17.55;;;;;;;12.52;100.00;99852.36;1724099;81;21159;-89
2022/10/26 02:11:48;;;;;;;24.07;16.60;;;;;;;12.45;100.00;99854.91;1713188;82;21853;-92
2022/10/26 02:14:32;;;;;;;27.58;17.32;;;;;;;12.68;100.00;99854.63;1724764;81;21135;-90
2022/10/26 02:17:09;;;;;;;23.62;16.87;;;;;;;12.73;100.00;99860.52;1720235;82;21106;-92
2022/10/26 02:19:49;;;;;;;25.65;17.00;;;;;;;12.68;100.00;99861.23;1733998;82;21054;-91
2022/10/26 02:22:26;;;;;;;24.43;16.77;;;;;;;12.67;100.00;99855.53;1734578;82;21252;-91
2022/10/26 02:24:53;;;;;;;23.27;16.25;;;;;;;12.66;100.00;99863.09;1730037;82;21116;-91
2022/10/26 02:27:24;;;;;;;22.77;15.68;;;;;;;12.84;100.00;99867.05;1734227;82;21039;-92
2022/10/26 02:29:52;;;;;;;24.50;16.15;;;;;;;12.66;100.00;99864.41;1727522;82;21072;-91
2022/10/26 02:32:19;;;;;;;24.65;16.00;;;;;;;12.65;100.00;99866.64;1721692;82;21105;-91
2022/10/26 02:34:47;;;;;;;20.50;14.85;;;;;;;12.57;100.00;99866.19;1717270;82;21068;-90
2022/10/26 02:37:15;;;;;;;24.15;16.77;;;;;;;12.60;100.00;99856.78;1702675;82;21037;-92
2022/10/26 02:39:44;;;;;;;26.02;16.67;;;;;;;12.56;100.00;99857.86;1735802;82;21069;-91
2022/10/26 02:42:11;;;;;;;23.10;15.80;;;;;;;12.62;100.00;99856.72;1733009;82;21084;-89
2022/10/26 02:44:51;;;;;;;25.08;15.72;;;;;;;12.65;100.00;99858.72;1713989;82;21004;-90
2022/10/26 02:47:17;;;;;;;23.38;14.83;;;;;;;12.69;100.00;99868.20;1716032;82;21260;-90
2022/10/26 02:49:44;;;;;;;23.02;16.62;;;;;;;12.60;100.00;99860.27;1713362;82;21076;-91
2022/10/26 02:52:34;;;;;;;22.35;16.17;;;;;;;12.58;100.00;99857.31;1719289;82;21052;-91
2022/10/26 02:55:21;;;;;;;27.13;17.02;;;;;;;12.73;100.00;99861.84;1680172;82;21322;-92
2022/10/26 02:57:53;;;;;;;24.25;16.93;;;;;;;12.78;100.00;99857.17;1729662;82;21053;-90
2022/10/26 03:00:21;;;;;;;24.90;16.95;;;;;;;12.77;100.00;99855.95;1721683;82;21076;-90
2022/10/26 03:02:54;;;;;;;20.68;15.23;;;;;;;12.87;100.00;99856.34;1756109;80;21270;-91
2022/10/26 03:05:29;;;;;;;18.80;13.65;;;;;;;12.82;100.00;99859.69;1748063;81;20959;-91
2022/10/26 03:07:55;;;;;;;18.70;13.70;;;;;;;12.75;100.00;99872.34;1764080;80;21013;-91
2022/10/26 03:10:22;;;;;;;23.42;14.87;;;;;;;12.80;100.00;99871.17;1751604;79;21430;-93
2022/10/26 03:12:49;;;;;;;23.75;14.87;;;;;;;12.80;100.00;99873.81;1764826;81;21147;-91
2022/10/26 03:15:17;;;;;;;16.30;11.75;;;;;;;12.83;100.00;99871.95;1766453;81;21058;-88
2022/10/26 03:17:43;;;;;;;20.00;13.83;;;;;;;12.78;100.00;99869.06;1746253;81;21073;-89
2022/10/26 03:20:10;;;;;;;24.43;14.60;;;;;;;12.76;100.00;99877.53;1752883;81;21136;-89
2022/10/26 03:22:37;;;;;;;20.52;13.70;;;;;;;12.80;100.00;99875.13;1757406;81;21561;-90
2022/10/26 03:25:06;;;;;;;23.18;13.48;;;;;;;12.77;100.00;99879.27;1764854;81;22290;-87
2022/10/26 03:27:34;;;;;;;19.95;14.18;;;;;;;12.74;100.00;99880.72;1763142;81;21033;-88
2022/10/26 03:30:02;;;;;;;17.80;14.07;;;;;;;12.80;100.00;99868.53;1762210;81;21120;-90
2022/10/26 03:32:30;;;;;;;20.43;12.95;;;;;;;12.82;100.00;99870.25;1760200;81;22103;-90
2022/10/26 03:34:58;;;;;;;19.67;14.45;;;;;;;12.86;100.00;99871.79;1752562;81;21158;-91
2022/10/26 03:37:25;;;;;;;22.00;13.78;;;;;;;12.73;100.00;99875.06;1759826;81;21207;-91
2022/10/26 03:39:52;;;;;;;17.87;13.43;;;;;;;12.86;100.00;99875.75;1760820;81;21116;-91
2022/10/26 03:42:18;;;;;;;22.32;14.75;;;;;;;12.84;100.00;99877.61;1743291;81;21117;-90
2022/10/26 03:44:47;;;;;;;20.35;13.32;;;;;;;12.76;100.00;99881.50;1734786;81;21033;-93
2022/10/26 03:47:13;;;;;;;17.50;12.50;;;;;;;12.70;100.00;99883.15;1714851;82;21546;-92
2022/10/26 03:49:40;;;;;;;22.25;13.65;;;;;;;12.68;100.00;99875.76;1725806;81;21106;-92
2022/10/26 03:52:08;;;;;;;14.10;10.93;;;;;;;12.79;100.00;99883.12;1734815;82;21116;-91
2022/10/26 03:54:37;;;;;;;16.45;12.30;;;;;;;12.78;100.00;99883.60;1721894;82;21111;-91
2022/10/26 03:57:05;;;;;;;17.07;12.65;;;;;;;12.83;100.00;99879.41;1724840;82;21108;-91
2022/10/26 03:59:31;;;;;;;20.37;12.35;;;;;;;12.90;100.00;99872.03;1716024;82;21022;-92
2022/10/26 04:01:58;;;;;;;14.15;11.10;;;;;;;12.96;100.00;99879.66;1730034;82;21199;-92
2022/10/26 04:04:26;;;;;;;15.93;10.55;;;;;;;12.90;100.00;99875.99;1694042;82;21192;-93
2022/10/26 04:06:52;;;;;;;17.27;12.35;;;;;;;12.83;100.00;99880.73;1729798;82;21132;-90
2022/10/26 04:09:19;;;;;;;17.80;12.23;;;;;;;12.78;100.00;99883.60;1731321;81;21577;-91
2022/10/26 04:11:46;;;;;;;18.70;12.68;;;;;;;12.69;100.00;99873.49;1741993;80;22217;-91
2022/10/26 04:14:12;;;;;;;18.82;12.58;;;;;;;12.51;100.00;99872.61;1733791;82;21132;-92
2022/10/26 04:16:41;;;;;;;18.30;12.13;;;;;;;12.52;100.00;99874.81;1700315;82;21029;-91
2022/10/26 04:19:08;;;;;;;19.98;12.75;;;;;;;12.63;100.00;99872.94;1721505;82;21100;-93
2022/10/26 04:21:37;;;;;;;17.35;11.25;;;;;;;12.54;100.00;99872.48;1706037;82;21077;-92
2022/10/26 04:24:04;;;;;;;18.00;12.33;;;;;;;12.43;100.00;99869.50;1730351;82;21081;-92
2022/10/26 04:26:31;;;;;;;17.25;12.33;;;;;;;12.49;100.00;99865.70;1729463;82;21158;-91
2022/10/26 04:28:57;;;;;;;19.23;11.73;;;;;;;12.46;100.00;99869.34;1733794;82;21187;-93
2022/10/26 04:31:24;;;;;;;18.85;12.10;;;;;;;12.55;100.00;99857.48;1734417;82;21156;-90
2022/10/26 04:33:53;;;;;;;19.90;13.20;;;;;;;12.61;100.00;99858.51;1725553;82;21111;-93
2022/10/26 04:36:21;;;;;;;26.10;12.37;;;;;;;12.61;100.00;99866.43;1722281;82;21058;-92
2022/10/26 04:38:49;;;;;;;18.57;12.93;;;;;;;12.59;100.00;99864.33;1731844;82;22261;-90
2022/10/26 04:41:16;;;;;;;16.90;12.25;;;;;;;12.55;100.00;99863.61;1721070;81;21060;-92
2022/10/26 04:43:43;;;;;;;15.58;11.38;;;;;;;12.58;100.00;99858.64;1732869;81;21055;-92
2022/10/26 04:46:12;;;;;;;17.17;11.45;;;;;;;12.55;100.00;99855.69;1736379;81;21236;-92
2022/10/26 04:48:39;;;;;;;17.52;12.03;;;;;;;12.68;100.00;99862.55;1742396;81;21547;-91
2022/10/26 04:51:07;;;;;;;16.82;11.80;;;;;;;12.69;100.00;99873.97;1742839;81;21202;-94
2022/10/26 04:53:35;;;;;;;15.78;10.15;;;;;;;12.70;100.00;99864.66;1741651;81;21056;-91
2022/10/26 04:56:02;;;;;;;20.77;12.73;;;;;;;12.73;100.00;99872.41;1741885;81;21064;-92
2022/10/26 04:58:29;;;;;;;17.82;11.30;;;;;;;12.70;100.00;99869.94;1741834;81;21075;-91
2022/10/26 05:00:55;;;;;;;20.80;12.60;;;;;;;12.72;100.00;99865.88;1743384;81;21063;-92
2022/10/26 05:03:22;;;;;;;15.70;11.40;;;;;;;12.74;100.00;99874.11;1744202;81;21212;-92
2022/10/26 05:05:49;;;;;;;16.55;11.38;;;;;;;12.75;100.00;99870.55;1741522;81;21055;-92
2022/10/26 05:08:16;;;;;;;18.70;12.82;;;;;;;12.72;100.00;99880.41;1744077;81;21567;-92
2022/10/26 05:10:49;;;;;;;19.45;11.57;;;;;;;12.82;100.00;99871.58;1746492;81;21604;-90
2022/10/26 05:13:19;;;;;;;16.48;11.90;;;;;;;12.85;100.00;99875.38;1747114;81;21185;-93
2022/10/26 05:15:45;;;;;;;18.57;12.78;;;;;;;12.82;100.00;99874.22;1747540;80;21488;-93
2022/10/26 05:18:11;;;;;;;17.82;10.53;;;;;;;12.88;100.00;99869.92;1747448;81;21078;-92
2022/10/26 05:20:39;;;;;;;13.48;10.03;;;;;;;12.96;100.00;99875.69;1746928;80;21066;-92
2022/10/26 05:23:09;;;;;;;21.17;11.53;;;;;;;12.92;100.00;99882.91;1745803;81;21681;-92
2022/10/26 05:25:36;;;;;;;15.43;10.88;;;;;;;12.93;100.00;99874.06;1741091;81;21077;-92
2022/10/26 05:28:07;;;;;;;15.00;11.60;;;;;;;12.94;100.00;99876.23;1747499;81;21083;-93
2022/10/26 05:30:35;;;;;;;18.42;11.10;;;;;;;13.06;100.00;99876.91;1747297;81;21583;-93
2022/10/26 05:33:02;;;;;;;18.30;11.63;;;;;;;12.93;100.00;99878.47;1744598;80;21139;-91
2022/10/26 05:35:29;;;;;;;16.55;11.05;;;;;;;12.87;100.00;99884.09;1747154;80;21126;-93
2022/10/26 05:37:55;;;;;;;16.25;10.72;;;;;;;12.84;100.00;99880.25;1747319;81;21662;-92
2022/10/26 05:40:21;;;;;;;14.93;10.45;;;;;;;13.01;100.00;99884.23;1746825;81;21484;-92
2022/10/26 05:42:49;;;;;;;18.40;11.63;;;;;;;12.97;100.00;99882.20;1747280;81;21043;-92
2022/10/26 05:45:19;;;;;;;20.90;11.97;;;;;;;12.89;100.00;99889.68;1749704;80;21059;-91
2022/10/26 05:47:46;;;;;;;14.60;11.45;;;;;;;13.04;100.00;99881.42;1756768;81;21077;-91
2022/10/26 05:50:13;;;;;;;14.47;10.18;;;;;;;13.18;100.00;99897.45;1742445;80;21040;-91
2022/10/26 05:52:42;;;;;;;14.95;10.95;;;;;;;13.14;100.00;99887.97;1739398;81;21115;-93
2022/10/26 05:55:11;;;;;;;15.32;10.68;;;;;;;13.16;100.00;99886.11;1754976;80;21272;-91
2022/10/26 05:57:40;;;;;;;;;;;;;;;13.13;100.00;99883.59;1766596;80;21092;-91
2022/10/26 06:00:15;;;;;;;16.30;9.88;;;;;;;13.05;100.00;99887.12;1764123;81;20633;-93
2022/10/26 06:03:14;;;;;;;13.58;10.08;;;;;;;13.14;100.00;99891.94;1764074;81;21574;-93
2022/10/26 06:05:57;;;;;;;16.32;10.90;;;;;;;13.26;100.00;99892.23;1747296;81;21776;-93
2022/10/26 07:34:12;;;;;;;14.23;8.73;;;;;;;14.01;100.00;99953.98;1799434;79;85092;-83
2022/10/26 07:36:39;;;;;;;13.32;7.80;;;;;;;14.03;100.00;99962.70;1774050;80;21124;-84
2022/10/26 07:39:07;;;;;;;13.10;7.40;;;;;;;14.08;100.00;99965.09;1768212;81;21091;-83
2022/10/26 07:41:34;;;;;;;11.50;8.43;;;;;;;14.18;100.00;99968.09;1768291;79;21667;-84
2022/10/26 07:44:01;;;;;;;12.30;7.33;;;;;;;14.08;100.00;99966.86;1767692;79;21772;-84
2022/10/26 07:46:28;;;;;;;13.35;7.60;;;;;;;14.10;100.00;99970.28;1759843;81;21052;-82
2022/10/26 07:48:55;;;;;;;9.58;6.60;;;;;;;14.10;100.00;99970.28;1732425;82;21105;-83
2022/10/26 07:51:22;;;;;;;10.05;7.42;;;;;;;14.23;100.00;99973.98;1697373;83;21069;-83
2022/10/26 07:53:50;;;;;;;11.20;7.30;;;;;;;14.20;100.00;99970.19;1727077;82;21058;-84
2022/10/26 07:56:17;;;;;;;8.65;7.28;;;;;;;14.18;100.00;99978.20;1731890;82;21112;-82
2022/10/26 07:58:43;;;;;;;8.33;6.10;;;;;;;14.16;100.00;99976.11;1761055;81;21069;-83
2022/10/26 08:01:12;;;;;;;12.65;6.53;;;;;;;14.18;100.00;99976.03;1744961;81;21060;-82
2022/10/26 08:03:39;;;;;;;9.40;6.78;;;;;;;14.21;100.00;99978.03;1758326;81;21063;-84
2022/10/26 08:06:06;;;;;;;7.60;6.12;;;;;;;14.18;100.00;99977.36;1744204;81;21105;-83
2022/10/26 08:08:33;;;;;;;7.33;5.78;;;;;;;14.31;100.00;99984.16;1761200;81;21315;-84
2022/10/26 08:11:02;;;;;;;11.30;6.60;;;;;;;14.39;100.00;99986.77;1744673;80;21044;-83
2022/10/26 08:13:29;;;;;;;7.08;5.15;;;;;;;14.37;100.00;99982.02;1737013;82;21047;-83
2022/10/26 08:15:59;;;;;;;10.05;5.75;;;;;;;14.33;100.00;99984.92;1722151;82;21525;-84
2022/10/26 08:18:27;;;;;;;10.53;6.15;;;;;;;14.31;100.00;99982.38;1729556;82;21089;-84
2022/10/26 08:20:53;;;;;;;8.50;6.03;;;;;;;14.36;100.00;99989.60;1725298;82;21915;-82
2022/10/26 08:23:21;;;;;;;7.08;5.80;;;;;;;14.35;100.00;99991.84;1728078;82;21612;-84
2022/10/26 08:25:47;;;;;;;8.70;6.10;;;;;;;14.46;100.00;99989.47;1761038;81;21147;-85
2022/10/26 08:28:14;;;;;;;8.30;5.85;;;;;;;14.65;100.00;99993.77;1749694;81;21019;-84
2022/10/26 08:30:40;;;;;;;11.73;6.53;;;;;;;14.62;100.00;99986.00;1735379;82;21627;-84
2022/10/26 08:33:09;;;;;;;7.65;6.25;;;;;;;14.70;100.00;99981.14;1735002;82;21079;-83
2022/10/26 08:35:35;;;;;;;8.88;7.12;;;;;;;14.83;100.00;99990.08;1702327;82;21473;-83
2022/10/26 08:38:02;;;;;;;8.78;6.03;;;;;;;15.05;100.00;99983.09;1723678;83;21028;-83
2022/10/26 08:40:35;;;;;;;8.75;6.47;;;;;;;15.12;100.00;99986.24;1720678;82;21131;-84
2022/10/26 08:43:28;;;;;;;7.55;5.90;;;;;;;15.28;100.00;99992.36;1753235;81;21093;-83
2022/10/26 08:46:18;;;;;;;7.00;5.67;;;;;;;15.53;100.00;99989.59;1758082;81;21186;-84
2022/10/26 08:49:06;;;;;;;13.18;5.60;;;;;;;15.53;100.00;99998.88;1755861;79;21608;-84
2022/10/26 08:51:36;;;;;;;6.87;5.17;;;;;;;15.63;100.00;99987.23;1756202;79;21040;-83
2022/10/26 08:54:14;;;;;;;9.33;5.97;;;;;;;15.69;100.00;99995.68;1767453;81;21122;-84
2022/10/26 08:56:46;;;;;;;8.48;5.80;;;;;;;15.86;100.00;100002.64;1759123;79;21099;-83
2022/10/26 08:59:38;;;;;;;6.75;5.15;;;;;;;16.05;100.00;99996.20;1761995;79;21531;-83
2022/10/26 09:02:11;;;;;;;;;;;;;;;16.24;100.00;99994.13;1770063;81;22184;-83
2022/10/26 09:04:37;;;;;;;6.90;4.80;;;;;;;16.39;100.00;100004.25;1760092;79;20240;-83
2022/10/26 09:07:43;;;;;;;7.42;5.40;;;;;;;16.52;100.00;99998.54;1765925;79;22102;-85
2022/10/26 09:10:49;;;;;;;6.75;4.78;;;;;;;16.64;100.00;100001.37;1760503;79;21258;-84
2022/10/26 09:13:24;;;;;;;6.05;4.72;;;;;;;16.83;100.00;100001.91;1763338;81;21127;-85
2022/10/26 09:16:07;;;;;;;6.83;4.25;;;;;;;16.98;100.00;100007.56;1767390;81;21066;-84
2022/10/26 13:18:19;;;;;;;10.93;6.57;;;;;;;14.96;100.00;100074.26;1840236;76;27703;-66
2022/10/26 13:21:13;;;;;;;9.68;6.60;;;;;;;15.03;100.00;100080.92;1777339;80;28119;-67
2022/10/26 13:23:56;;;;;;;11.05;6.30;;;;;;;15.27;100.00;100087.47;1793115;79;21796;-67
2022/10/26 13:26:25;;;;;;;10.38;5.97;;;;;;;15.21;100.00;100091.81;1792962;80;21643;-67
2022/10/26 13:28:59;;;;;;;11.12;6.40;;;;;;;15.16;100.00;100092.55;1792824;80;21052;-66
2022/10/26 13:31:36;;;;;;;10.98;5.55;;;;;;;15.18;100.00;100097.75;1793299;80;22177;-68
2022/10/26 13:34:19;;;;;;;12.10;6.87;;;;;;;15.12;100.00;100097.64;1757677;81;20979;-67
2022/10/26 13:37:20;;;;;;;12.20;7.17;;;;;;;14.94;100.00;100097.34;1757741;81;21144;-67
2022/10/26 13:39:47;;;;;;;11.57;7.03;;;;;;;15.00;100.00;100099.64;1757779;81;21058;-67
2022/10/26 13:42:19;;;;;;;11.90;6.95;;;;;;;14.95;100.00;100099.89;1757631;81;21083;-68
2022/10/26 13:44:56;;;;;;;12.68;6.75;;;;;;;15.02;100.00;100107.04;1753089;81;21047;-68
2022/10/26 13:47:37;;;;;;;10.40;6.85;;;;;;;15.01;100.00;100109.32;1757087;81;21087;-67
2022/10/26 13:50:07;;;;;;;10.18;6.10;;;;;;;14.78;100.00;100107.46;1756356;81;21240;-68
2022/10/26 13:52:37;;;;;;;14.10;6.58;;;;;;;14.64;100.00;100112.19;1757901;81;21099;-66
2022/10/26 13:55:21;;;;;;;10.43;6.40;;;;;;;14.73;100.00;100113.49;1757515;81;21574;-67
2022/10/26 13:58:18;;;;;;;13.58;7.45;;;;;;;14.67;100.00;100117.79;1757650;81;21566;-67
2022/10/26 14:01:16;;;;;;;13.60;7.70;;;;;;;14.64;100.00;100113.99;1757747;81;21098;-68
2022/10/26 14:03:43;;;;;;;13.78;7.00;;;;;;;14.46;100.00;100114.00;1757792;81;21029;-67
2022/10/26 14:06:24;;;;;;;12.75;7.22;;;;;;;14.50;100.00;100117.83;1757245;81;21068;-67
2022/10/26 14:08:53;;;;;;;11.53;7.05;;;;;;;14.41;100.00;100126.64;1755770;81;21150;-67
2022/10/26 14:11:23;;;;;;;11.40;6.33;;;;;;;14.33;100.00;100127.50;1749425;81;21095;-69
2022/10/26 14:13:51;;;;;;;10.50;6.33;;;;;;;14.42;100.00;100133.67;1715636;83;21074;-68
2022/10/26 14:16:19;;;;;;;10.63;6.67;;;;;;;14.27;100.00;100137.96;1738919;81;22445;-68
2022/10/26 14:18:47;;;;;;;11.28;6.90;;;;;;;14.29;100.00;100136.56;1738825;82;21200;-68
2022/10/26 14:21:17;;;;;;;8.18;6.35;;;;;;;14.25;100.00;100144.28;1739165;82;21245;-68
2022/10/26 14:23:55;;;;;;;11.53;6.45;;;;;;;14.11;100.00;100148.11;1739305;82;21064;-68
2022/10/26 14:26:40;;;;;;;10.53;6.20;;;;;;;14.06;100.00;100149.20;1739251;82;21150;-68
2022/10/26 14:29:19;;;;;;;11.38;6.62;;;;;;;14.00;100.00;100148.18;1738443;82;21266;-67
2022/10/26 14:31:48;;;;;;;12.65;6.83;;;;;;;13.95;100.00;100152.86;1738704;82;21060;-68
2022/10/26 14:34:16;;;;;;;10.98;6.65;;;;;;;13.93;100.00;100149.91;1738480;82;21099;-67
2022/10/26 14:36:51;;;;;;;10.60;7.03;;;;;;;13.92;100.00;100158.31;1738637;82;21068;-67
2022/10/26 14:39:42;;;;;;;10.70;5.95;;;;;;;13.85;100.00;100156.92;1738511;82;21095;-67
2022/10/26 14:42:18;;;;;;;9.95;6.58;;;;;;;13.79;100.00;100160.70;1738234;82;21068;-68
2022/10/26 14:44:45;;;;;;;9.85;6.50;;;;;;;13.82;100.00;100159.22;1757510;81;21651;-68
2022/10/26 14:47:17;;;;;;;11.75;7.12;;;;;;;13.84;100.00;100163.98;1769186;81;21060;-66
2022/10/26 14:49:44;;;;;;;10.15;6.03;;;;;;;13.79;100.00;100162.51;1768875;81;21111;-68
2022/10/26 14:52:10;;;;;;;9.73;6.87;;;;;;;13.78;100.00;100166.07;1769563;81;21622;-68
2022/10/26 14:54:37;;;;;;;11.22;7.17;;;;;;;13.70;100.00;100176.20;1738626;81;21219;-68
2022/10/26 14:57:07;;;;;;;12.03;7.42;;;;;;;13.64;100.00;100170.28;1769158;81;21087;-68
2022/10/26 14:59:32;;;;;;;11.22;7.08;;;;;;;13.55;100.00;100180.43;1738859;81;21091;-67
2022/10/26 15:02:23;;;;;;;10.23;6.97;;;;;;;13.53;100.00;100180.53;1769252;81;21075;-68
2022/10/26 15:05:02;;;;;;;11.50;7.20;;;;;;;13.50;100.00;100184.62;1739017;81;21124;-67
2022/10/26 15:07:36;;;;;;;9.50;6.35;;;;;;;13.47;100.00;100190.07;1769108;81;21225;-68
2022/10/26 15:10:05;;;;;;;10.60;6.83;;;;;;;13.43;100.00;100192.47;1779440;80;21075;-68
2022/10/26 15:12:36;;;;;;;13.28;7.25;;;;;;;13.37;100.00;100192.78;1761195;81;21084;-68
2022/10/26 15:15:21;;;;;;;11.53;6.72;;;;;;;13.37;100.00;100198.92;1760866;81;21087;-68
2022/10/26 15:17:54;;;;;;;8.40;6.03;;;;;;;13.35;100.00;100195.95;1761184;80;21096;-69
2022/10/26 15:20:23;;;;;;;12.75;7.28;;;;;;;13.28;100.00;100195.86;1761855;81;21191;-68
2022/10/26 15:22:58;;;;;;;13.18;7.47;;;;;;;13.27;100.00;100200.70;1788239;80;21626;-68
2022/10/26 15:25:35;;;;;;;10.08;6.67;;;;;;;13.21;100.00;100209.80;1761273;81;21564;-68
2022/10/26 15:28:30;;;;;;;12.20;6.80;;;;;;;13.23;100.00;100214.08;1788629;80;21040;-68
2022/10/26 15:31:13;;;;;;;14.63;6.92;;;;;;;13.28;100.00;100215.70;1761457;81;21607;-67
2022/10/26 15:33:45;;;;;;;16.42;7.62;;;;;;;13.21;100.00;100217.26;1788091;80;21028;-69
2022/10/26 15:36:19;;;;;;;13.93;7.25;;;;;;;13.13;100.00;100215.89;1744067;81;21095;-69
2022/10/26 15:38:46;;;;;;;16.87;7.85;;;;;;;13.08;100.00;100221.39;1788549;80;21060;-67
2022/10/26 15:41:29;;;;;;;11.78;6.90;;;;;;;13.15;100.00;100221.97;1761603;81;21069;-68
2022/10/26 15:44:04;;;;;;;13.13;7.10;;;;;;;13.12;100.00;100219.01;1779806;80;21072;-68
2022/10/26 15:46:34;;;;;;;15.15;7.67;;;;;;;13.10;100.00;100228.80;1731444;82;21112;-67
2022/10/26 15:49:05;;;;;;;15.03;7.92;;;;;;;13.08;100.00;100222.72;1725795;83;21088;-67
2022/10/26 15:51:32;;;;;;;13.88;7.60;;;;;;;13.04;100.00;100230.86;1731526;82;21072;-68
2022/10/26 15:54:01;;;;;;;13.25;7.75;;;;;;;13.09;100.00;100235.46;1725578;83;21538;-68
2022/10/26 15:56:29;;;;;;;13.83;7.25;;;;;;;13.08;100.00;100250.48;1731409;82;21075;-66
2022/10/26 15:58:56;;;;;;;29.25;15.95;;;;;;;12.97;100.00;100250.10;1731139;82;21842;-68
2022/10/26 16:01:24;;;;;;;44.98;23.30;;;;;;;12.97;100.00;100258.03;1725246;83;21046;-69
2022/10/26 16:03:51;;;;;;;83.47;38.13;;;;;;;12.89;100.00;100251.77;1730767;82;21091;-68
2022/10/26 16:06:27;;;;;;;48.33;24.47;;;;;;;12.89;100.00;100257.53;1725464;83;21068;-67
2022/10/26 16:08:56;;;;;;;49.53;23.80;;;;;;;12.94;100.00;100257.70;1730735;82;21080;-68
2022/10/26 16:11:24;;;;;;;33.98;16.37;;;;;;;12.97;100.00;100269.45;1725431;83;22219;-68
2022/10/26 16:13:52;;;;;;;46.37;24.37;;;;;;;12.96;100.00;100268.22;1731061;82;21076;-68
2022/10/26 16:16:19;;;;;;;35.70;17.23;;;;;;;12.91;100.00;100271.54;1725102;83;21038;-67
2022/10/26 16:18:47;;;;;;;39.67;21.62;;;;;;;12.92;100.00;100270.13;1730505;82;21103;-67
2022/10/26 16:21:16;;;;;;;32.00;20.00;;;;;;;12.87;100.00;100270.80;1730759;82;21115;-67
2022/10/26 16:23:50;;;;;;;28.67;17.30;;;;;;;12.88;100.00;100272.98;1731116;82;21198;-68
2022/10/26 16:26:17;;;;;;;20.52;12.35;;;;;;;12.98;100.00;100276.48;1730477;82;21072;-68
2022/10/26 16:28:43;;;;;;;18.85;10.72;;;;;;;13.00;100.00;100280.39;1730725;82;22208;-69
2022/10/26 16:31:12;;;;;;;24.77;14.43;;;;;;;12.99;100.00;100279.97;1730511;82;21111;-68
2022/10/26 16:33:38;;;;;;;12.68;7.25;;;;;;;12.98;100.00;100282.23;1730743;82;21060;-67
2022/10/26 16:36:06;;;;;;;20.72;11.43;;;;;;;12.86;100.00;100281.44;1730677;82;21652;-68
2022/10/26 16:38:32;;;;;;;14.47;9.10;;;;;;;12.88;100.00;100282.23;1730647;82;21069;-67
2022/10/26 16:41:09;;;;;;;15.55;8.70;;;;;;;12.86;100.00;100282.31;1730413;82;21143;-67
2022/10/26 16:43:39;;;;;;;14.95;8.73;;;;;;;12.79;100.00;100284.37;1734799;81;21588;-67
2022/10/26 16:46:11;;;;;;;14.18;7.75;;;;;;;12.84;100.00;100287.25;1760802;81;21099;-68
2022/10/26 16:48:38;;;;;;;11.35;9.40;;;;;;;12.82;100.00;100287.80;1761127;81;21080;-67
2022/10/26 16:51:10;;;;;;;12.33;8.45;;;;;;;12.83;100.00;100289.51;1760973;81;21045;-69
2022/10/26 16:53:37;;;;;;;15.60;8.65;;;;;;;12.78;100.00;100287.92;1760909;81;21044;-68
2022/10/26 16:56:06;;;;;;;10.08;7.40;;;;;;;12.83;100.00;100290.83;1760509;81;21119;-67
2022/10/26 16:58:32;;;;;;;11.30;7.35;;;;;;;12.82;100.00;100294.41;1761110;81;21556;-68